Terminal Aerodrome Forecast
Issued by NWS

Home | Current Version | Previous Version | Text Only | Print | Product List | Glossary On
Versions: 1 2 3 4 5 6 7 8 9 10 11 12 13 14 15 16 17 18 19 20 21 22 23 24 25 26 27 28 29 30 31 32 33 34
000
FTUS46 KLOX 291739
TAFLAX
TAF
KLAX 291739Z 2918/3024 23006KT P6SM BKN035
     FM291900 25010KT P6SM BKN035
     FM292300 25012KT P6SM BKN017
     FM300300 25008KT P6SM OVC012
     FM300500 VRB03KT 6SM BR OVC012
     FM301700 VRB03KT 6SM HZ BKN020
     FM302000 25012KT P6SM BKN025=

USA.gov is the U.S. government's official web portal to all federal, state and local government web resources and services.